Time;durP1;ratioP1;P1;durP2;ratioP2;P2;SDS_P1;SDS_P2;PMS_P1;PMS_P2;Temp;Humidity;BMP_temperature;BMP_pressure;BME280_temperature;BME280_humidity;BME280_pressure;Samples;Min_cycle;Max_cycle;Signal;HPM_P1;HPM_P2
2022/01/15 00:01:56;;;;;;;31.20;14.73;;;3.40;99.90;;;;;;4991489;28;20213;-78
2022/01/15 00:04:22;;;;;;;28.60;15.13;;;3.40;99.90;;;;;;4972518;28;20295;-80
2022/01/15 00:06:47;;;;;;;31.50;14.53;;;3.30;99.90;;;;;;4973537;28;20180;-79
2022/01/15 00:09:15;;;;;;;31.13;14.47;;;3.20;99.90;;;;;;4990258;28;20279;-79
2022/01/15 00:11:40;;;;;;;31.47;14.10;;;3.10;99.90;;;;;;4973004;28;20211;-77
2022/01/15 00:14:13;;;;;;;28.50;14.33;;;3.00;99.90;;;;;;4989965;28;20211;-78
2022/01/15 00:16:55;;;;;;;28.77;14.40;;;2.90;99.90;;;;;;4991272;28;20196;-80
2022/01/15 00:19:31;;;;;;;33.57;15.97;;;2.80;99.90;;;;;;4990212;28;20180;-75
2022/01/15 00:21:57;;;;;;;31.73;16.00;;;2.70;99.90;;;;;;4973170;28;20242;-76
2022/01/15 00:24:24;;;;;;;28.47;14.60;;;2.70;99.90;;;;;;4971754;28;20216;-79
2022/01/15 00:26:50;;;;;;;29.80;14.70;;;2.60;99.90;;;;;;4972759;28;20204;-78
2022/01/15 00:29:15;;;;;;;28.30;14.43;;;2.60;99.90;;;;;;4990045;28;20199;-78
2022/01/15 00:31:41;;;;;;;30.07;13.77;;;2.70;99.90;;;;;;4971975;28;20188;-79
2022/01/15 00:34:07;;;;;;;32.40;14.60;;;2.80;99.90;;;;;;4989373;28;20274;-78
2022/01/15 00:36:32;;;;;;;29.30;13.10;;;2.80;99.90;;;;;;4989624;28;20589;-75
2022/01/15 00:38:58;;;;;;;27.20;13.27;;;3.00;99.90;;;;;;4989433;28;20196;-78
2022/01/15 00:41:23;;;;;;;32.33;12.07;;;3.20;99.90;;;;;;4989871;28;20615;-78
2022/01/15 00:43:49;;;;;;;44.37;13.67;;;3.30;99.90;;;;;;4989794;28;20184;-78
2022/01/15 00:46:14;;;;;;;73.63;16.17;;;3.40;99.90;;;;;;4988972;28;20295;-79
2022/01/15 00:48:40;;;;;;;73.83;14.83;;;3.50;99.90;;;;;;4990035;28;20568;-75
2022/01/15 00:51:06;;;;;;;60.37;15.47;;;3.50;99.90;;;;;;4971871;28;20206;-79
2022/01/15 00:53:31;;;;;;;55.13;14.70;;;3.60;99.90;;;;;;4989775;28;20847;-80
2022/01/15 00:55:57;;;;;;;38.63;13.63;;;3.60;99.90;;;;;;4972062;28;20212;-78
2022/01/15 00:58:22;;;;;;;42.43;15.20;;;3.50;99.90;;;;;;4989808;28;20212;-77
2022/01/15 01:00:48;;;;;;;36.87;13.87;;;3.60;99.90;;;;;;4988618;28;20188;-79
2022/01/15 01:03:14;;;;;;;47.50;14.37;;;3.50;99.90;;;;;;4971398;28;20192;-78
2022/01/15 01:05:39;;;;;;;54.30;14.23;;;3.50;99.90;;;;;;4990061;28;20274;-76
2022/01/15 01:08:05;;;;;;;55.97;14.37;;;3.50;99.90;;;;;;4990611;28;20695;-75
2022/01/15 01:21:21;;;;;;;53.67;13.27;;;3.50;99.90;;;;;;4990799;28;20222;-79
2022/01/15 01:23:48;;;;;;;77.80;14.37;;;3.50;99.90;;;;;;4990334;28;20188;-81
2022/01/15 01:26:28;;;;;;;114.43;30.73;;;3.60;99.90;;;;;;4989161;28;20257;-77
2022/01/15 01:29:05;;;;;;;76.67;14.47;;;3.60;99.90;;;;;;4989767;28;20195;-77
2022/01/15 01:31:39;;;;;;;70.30;13.10;;;3.50;99.90;;;;;;4989251;28;20654;-78
2022/01/15 01:34:12;;;;;;;92.80;14.70;;;3.50;99.90;;;;;;4989495;28;20184;-77
2022/01/15 01:39:13;;;;;;;65.47;13.17;;;3.50;99.90;;;;;;4990943;28;20192;-78
2022/01/15 01:41:42;;;;;;;92.73;14.70;;;3.50;99.90;;;;;;4993658;28;20191;-78
2022/01/15 01:44:15;;;;;;;67.77;13.53;;;3.50;99.90;;;;;;4993472;28;20184;-79
2022/01/15 01:46:52;;;;;;;30.97;12.53;;;3.50;99.90;;;;;;4975944;28;20176;-75
2022/01/15 01:49:20;;;;;;;49.63;12.33;;;3.50;99.90;;;;;;4993443;28;20192;-81
2022/01/15 01:51:46;;;;;;;70.67;15.80;;;3.50;99.90;;;;;;4993296;28;20188;-81
2022/01/15 01:54:16;;;;;;;39.23;13.40;;;3.50;99.90;;;;;;4993047;28;20184;-79
2022/01/15 01:56:41;;;;;;;86.63;14.70;;;3.50;99.90;;;;;;4993957;28;20191;-79
2022/01/15 01:59:08;;;;;;;62.57;14.30;;;3.50;99.90;;;;;;4993589;28;20188;-80
2022/01/15 02:01:33;;;;;;;68.37;13.53;;;3.50;99.90;;;;;;4992337;28;20191;-78
2022/01/15 02:04:00;;;;;;;33.93;11.90;;;3.50;99.90;;;;;;4991586;28;20188;-79
2022/01/15 02:06:26;;;;;;;42.37;12.57;;;3.50;99.90;;;;;;4974750;28;20259;-79
2022/01/15 02:08:54;;;;;;;54.30;14.60;;;3.60;99.90;;;;;;4992068;28;20192;-79
2022/01/15 02:11:20;;;;;;;60.23;13.37;;;3.60;99.90;;;;;;4992889;28;20173;-80
2022/01/15 02:13:46;;;;;;;82.80;14.60;;;3.60;99.90;;;;;;4993274;28;20559;-77
2022/01/15 02:16:13;;;;;;;55.90;14.40;;;3.60;99.90;;;;;;4990849;28;20255;-77
2022/01/15 02:18:39;;;;;;;51.83;14.33;;;3.60;99.90;;;;;;4991576;28;20203;-80
2022/01/15 02:23:34;;;;;;;80.87;18.23;;;3.60;99.90;;;;;;4992140;28;20218;-76
2022/01/15 02:26:06;;;;;;;83.97;18.13;;;3.60;99.90;;;;;;4974419;28;20251;-78
2022/01/15 02:28:38;;;;;;;32.27;15.87;;;3.60;99.90;;;;;;4992636;28;20177;-77
2022/01/15 02:31:09;;;;;;;54.93;16.50;;;3.60;99.90;;;;;;4992242;28;20192;-78
2022/01/15 02:33:36;;;;;;;41.03;14.93;;;3.60;99.90;;;;;;4974829;28;20195;-80
2022/01/15 02:36:06;;;;;;;55.77;15.70;;;3.60;99.90;;;;;;4992190;28;20227;-75
2022/01/15 02:38:31;;;;;;;53.53;17.03;;;3.60;99.90;;;;;;4974958;28;20184;-77
2022/01/15 02:40:57;;;;;;;44.30;16.80;;;3.60;99.90;;;;;;4974885;28;20562;-81
2022/01/15 02:43:31;;;;;;;42.77;18.33;;;3.60;99.90;;;;;;4991369;28;20658;-76
2022/01/15 02:46:00;;;;;;;43.43;18.10;;;3.70;99.90;;;;;;4991903;28;20230;-78
2022/01/15 02:48:28;;;;;;;39.93;17.10;;;3.70;99.90;;;;;;4991925;28;20197;-78
2022/01/15 02:50:56;;;;;;;46.60;16.97;;;3.70;99.90;;;;;;4991263;28;20223;-77
2022/01/15 02:53:22;;;;;;;37.40;15.07;;;3.70;99.90;;;;;;4992803;28;20199;-79
2022/01/15 02:55:51;;;;;;;42.40;15.83;;;3.70;99.90;;;;;;4974291;28;20212;-77
2022/01/15 02:58:19;;;;;;;46.60;15.20;;;3.70;99.90;;;;;;4991210;28;20185;-76
2022/01/15 03:00:46;;;;;;;41.07;16.10;;;3.80;99.90;;;;;;4992348;28;20184;-78
2022/01/15 03:03:12;;;;;;;45.60;15.80;;;3.80;99.90;;;;;;4991881;28;20259;-77
2022/01/15 03:05:38;;;;;;;49.37;16.30;;;3.70;99.90;;;;;;4990573;28;20291;-77
2022/01/15 03:08:04;;;;;;;36.83;16.03;;;3.80;99.90;;;;;;4991461;28;20242;-78
2022/01/15 03:10:29;;;;;;;42.30;16.30;;;3.80;99.90;;;;;;4973446;28;20196;-77
2022/01/15 03:12:57;;;;;;;47.13;16.90;;;3.80;99.90;;;;;;4991502;28;20632;-76
2022/01/15 03:15:23;;;;;;;38.40;16.10;;;3.80;99.90;;;;;;4991265;28;20208;-79
2022/01/15 03:17:49;;;;;;;41.30;15.53;;;3.90;99.90;;;;;;4991440;28;20184;-79
2022/01/15 03:20:17;;;;;;;42.90;16.00;;;3.80;99.90;;;;;;4973235;28;20262;-78
2022/01/15 03:22:43;;;;;;;42.93;16.03;;;3.80;99.90;;;;;;4973050;28;20184;-79
2022/01/15 03:25:09;;;;;;;41.20;16.57;;;3.90;99.90;;;;;;4972644;28;20543;-78
2022/01/15 03:27:35;;;;;;;38.60;16.03;;;3.90;99.90;;;;;;4990795;28;20192;-75
2022/01/15 03:30:01;;;;;;;40.07;16.33;;;3.90;99.90;;;;;;4990148;28;20259;-79
2022/01/15 03:32:26;;;;;;;42.60;15.40;;;3.90;99.90;;;;;;4989361;28;20184;-75
2022/01/15 03:34:52;;;;;;;40.40;15.73;;;3.90;99.90;;;;;;4971108;28;20215;-78
2022/01/15 03:37:18;;;;;;;37.53;14.93;;;3.90;99.90;;;;;;4987734;28;20180;-76
2022/01/15 03:39:45;;;;;;;37.67;16.47;;;3.90;99.90;;;;;;4985763;28;20197;-77
2022/01/15 03:42:14;;;;;;;36.07;15.53;;;3.90;99.90;;;;;;4967016;28;20898;-77
2022/01/15 03:44:45;;;;;;;39.80;16.10;;;3.90;99.90;;;;;;4970257;28;20243;-75
2022/01/15 03:47:12;;;;;;;37.13;14.50;;;4.00;99.90;;;;;;4990835;28;20200;-78
2022/01/15 03:49:38;;;;;;;34.20;14.00;;;4.00;99.90;;;;;;4990651;28;20237;-81
2022/01/15 03:52:05;;;;;;;37.10;15.53;;;4.00;99.90;;;;;;4990359;28;20738;-79
2022/01/15 03:54:32;;;;;;;36.70;14.57;;;4.00;99.90;;;;;;4989908;28;20239;-79
2022/01/15 03:56:57;;;;;;;31.70;13.93;;;4.00;99.90;;;;;;4990101;28;20216;-78
2022/01/15 03:59:23;;;;;;;38.30;15.33;;;4.00;99.90;;;;;;4989831;28;20570;-78
2022/01/15 04:01:49;;;;;;;33.90;14.07;;;4.00;99.90;;;;;;4990776;28;20638;-79
2022/01/15 04:04:15;;;;;;;36.10;15.37;;;4.00;99.90;;;;;;4990084;28;20295;-79
2022/01/15 04:06:41;;;;;;;31.83;13.87;;;4.00;99.90;;;;;;4990175;28;20188;-74
2022/01/15 04:09:07;;;;;;;31.90;14.37;;;4.10;99.90;;;;;;4990499;28;20211;-79
2022/01/15 04:11:34;;;;;;;36.70;15.13;;;4.00;99.90;;;;;;4990387;28;20214;-79
2022/01/15 04:14:00;;;;;;;33.80;14.40;;;4.10;99.90;;;;;;4990373;28;20247;-78
2022/01/15 04:16:28;;;;;;;32.20;13.13;;;4.10;99.90;;;;;;4972775;28;20220;-80
2022/01/15 04:18:54;;;;;;;33.87;14.73;;;4.10;99.90;;;;;;4990306;28;20650;-79
2022/01/15 04:21:19;;;;;;;32.67;13.77;;;4.10;99.90;;;;;;4989780;28;20218;-81
2022/01/15 04:23:45;;;;;;;35.20;13.90;;;4.10;99.90;;;;;;4990462;28;20537;-76
2022/01/15 04:26:11;;;;;;;32.20;14.97;;;4.10;99.90;;;;;;4989114;28;20709;-76
2022/01/15 04:28:36;;;;;;;34.93;15.03;;;4.10;99.90;;;;;;4990182;28;20628;-79
2022/01/15 04:31:06;;;;;;;32.87;14.27;;;4.10;99.90;;;;;;4989655;28;20180;-78
2022/01/15 04:33:36;;;;;;;34.23;15.13;;;4.10;99.90;;;;;;4990060;28;20717;-77
2022/01/15 04:36:04;;;;;;;35.83;14.73;;;4.20;99.90;;;;;;4990182;28;20212;-81
2022/01/15 04:38:32;;;;;;;29.77;13.10;;;4.10;99.90;;;;;;4989990;28;20172;-79
2022/01/15 04:40:58;;;;;;;29.63;13.30;;;4.20;99.90;;;;;;4971540;28;20188;-79
2022/01/15 04:43:23;;;;;;;36.50;14.87;;;4.20;99.90;;;;;;4988489;28;20370;-78
2022/01/15 04:45:49;;;;;;;33.20;14.13;;;4.20;99.90;;;;;;4990300;28;20219;-78
2022/01/15 04:48:15;;;;;;;32.20;14.63;;;4.10;99.90;;;;;;4989637;28;20188;-75
2022/01/15 04:50:41;;;;;;;34.20;13.63;;;4.20;99.90;;;;;;4990499;28;20266;-79
2022/01/15 04:53:08;;;;;;;40.30;14.80;;;4.20;99.90;;;;;;4990499;28;20275;-78
2022/01/15 04:55:35;;;;;;;29.93;13.80;;;4.20;99.90;;;;;;4990411;28;20212;-76
2022/01/15 04:58:01;;;;;;;34.87;13.97;;;4.20;99.90;;;;;;4973715;28;20192;-78
2022/01/15 05:00:26;;;;;;;34.50;14.40;;;4.20;99.90;;;;;;4989938;28;20191;-77
2022/01/15 05:02:52;;;;;;;32.17;13.57;;;4.20;99.90;;;;;;4991287;28;20262;-79
2022/01/15 05:05:17;;;;;;;29.87;12.73;;;4.20;99.90;;;;;;4972940;28;20674;-77
2022/01/15 05:07:43;;;;;;;39.87;16.33;;;4.20;99.90;;;;;;4974136;28;20180;-79
2022/01/15 05:10:14;;;;;;;37.17;15.33;;;4.20;99.90;;;;;;4971848;28;20192;-78
2022/01/15 05:12:46;;;;;;;42.00;15.80;;;4.20;99.90;;;;;;4989623;28;20263;-78
2022/01/15 05:15:13;;;;;;;32.63;12.80;;;4.20;99.90;;;;;;4993302;28;20236;-78
2022/01/15 05:17:40;;;;;;;35.07;14.77;;;4.20;99.90;;;;;;4976686;28;20180;-78
2022/01/15 05:20:07;;;;;;;30.70;12.20;;;4.20;99.90;;;;;;4994751;28;20180;-79
2022/01/15 05:22:34;;;;;;;36.13;13.67;;;4.20;99.90;;;;;;4994361;28;20207;-77
2022/01/15 05:24:59;;;;;;;30.57;14.00;;;4.20;99.90;;;;;;4976120;28;20846;-79
2022/01/15 05:27:25;;;;;;;38.60;12.63;;;4.20;99.90;;;;;;4993120;28;20263;-79
2022/01/15 05:29:51;;;;;;;39.47;14.13;;;4.20;99.90;;;;;;4993700;28;20192;-74
2022/01/15 05:32:19;;;;;;;42.00;13.40;;;4.20;99.90;;;;;;4993832;28;20203;-75
2022/01/15 05:34:45;;;;;;;39.03;13.77;;;4.20;99.90;;;;;;4993453;28;20236;-77
2022/01/15 05:37:10;;;;;;;35.50;13.60;;;4.20;99.90;;;;;;4977056;28;21132;-77
2022/01/15 05:39:36;;;;;;;35.93;12.77;;;4.20;99.90;;;;;;4993648;28;20196;-77
2022/01/15 05:42:02;;;;;;;33.60;13.23;;;4.20;99.90;;;;;;4993585;28;20188;-79
2022/01/15 05:44:27;;;;;;;36.17;12.67;;;4.20;99.90;;;;;;4993852;28;20674;-78
2022/01/15 05:46:53;;;;;;;36.93;13.83;;;4.30;99.90;;;;;;4976716;28;21039;-79
2022/01/15 05:49:18;;;;;;;37.73;13.57;;;4.20;99.90;;;;;;4975609;28;20222;-80
2022/01/15 05:51:44;;;;;;;37.37;12.77;;;4.30;99.90;;;;;;4994736;28;20194;-77
2022/01/15 05:54:11;;;;;;;38.40;13.33;;;4.30;99.90;;;;;;4976425;28;20246;-77
2022/01/15 05:56:38;;;;;;;39.30;13.77;;;4.30;99.90;;;;;;4976148;28;20172;-78
2022/01/15 05:59:04;;;;;;;39.77;12.90;;;4.20;99.90;;;;;;4992995;28;20270;-79
2022/01/15 06:01:29;;;;;;;33.60;13.63;;;4.10;99.90;;;;;;4993926;28;20218;-79
2022/01/15 06:03:55;;;;;;;41.60;13.63;;;4.10;99.90;;;;;;4974973;28;20249;-77
2022/01/15 06:06:21;;;;;;;37.30;12.93;;;4.20;99.90;;;;;;4993862;28;20177;-76
2022/01/15 06:08:47;;;;;;;37.20;13.20;;;4.20;99.90;;;;;;4994733;28;20188;-79
2022/01/15 06:11:17;;;;;;;42.33;14.53;;;4.20;99.90;;;;;;4993447;28;21076;-79
2022/01/15 06:13:44;;;;;;;45.50;14.57;;;4.20;99.90;;;;;;4993450;28;20235;-76
2022/01/15 06:16:10;;;;;;;39.53;14.63;;;4.20;99.90;;;;;;4975965;28;20215;-78
2022/01/15 06:18:35;;;;;;;39.53;13.43;;;4.20;99.90;;;;;;4975746;28;20187;-76
2022/01/15 06:21:01;;;;;;;42.90;14.47;;;4.20;99.90;;;;;;4992911;28;20216;-78
2022/01/15 06:23:27;;;;;;;42.23;14.80;;;4.10;99.90;;;;;;4975489;28;20173;-80
2022/01/15 06:25:52;;;;;;;43.37;13.93;;;4.10;99.90;;;;;;4993562;28;20232;-78
2022/01/15 06:28:18;;;;;;;41.57;13.27;;;4.00;99.90;;;;;;4975702;28;20184;-79
2022/01/15 06:30:44;;;;;;;35.90;13.17;;;4.00;99.90;;;;;;4992617;28;20196;-77
2022/01/15 06:33:09;;;;;;;37.33;13.63;;;4.00;99.90;;;;;;4976176;28;20200;-80
2022/01/15 06:35:35;;;;;;;36.20;13.57;;;4.10;99.90;;;;;;4992480;28;20235;-80
2022/01/15 06:38:00;;;;;;;47.53;15.30;;;4.00;99.90;;;;;;4975402;28;20192;-77
2022/01/15 06:40:26;;;;;;;33.80;13.27;;;4.00;99.90;;;;;;4993376;28;20191;-75
2022/01/15 06:42:52;;;;;;;35.43;12.67;;;3.90;99.90;;;;;;4992416;28;20180;-79
2022/01/15 06:45:18;;;;;;;34.47;12.60;;;3.90;99.90;;;;;;4974345;28;20214;-78
2022/01/15 06:47:44;;;;;;;37.77;14.50;;;3.90;99.90;;;;;;4993896;28;20188;-78
2022/01/15 06:50:10;;;;;;;34.40;13.10;;;3.80;99.90;;;;;;4975083;28;20188;-77
2022/01/15 06:52:37;;;;;;;32.97;11.90;;;3.80;99.90;;;;;;4974261;28;20195;-77
2022/01/15 06:55:09;;;;;;;41.63;12.90;;;3.80;99.90;;;;;;4990943;28;20251;-79
2022/01/15 06:57:35;;;;;;;27.93;12.03;;;3.80;99.90;;;;;;4991160;28;20180;-78
2022/01/15 07:00:02;;;;;;;34.17;13.30;;;3.80;99.90;;;;;;4971725;28;20187;-77
2022/01/15 07:02:27;;;;;;;33.93;11.53;;;3.80;99.90;;;;;;4988103;28;20180;-77
2022/01/15 07:04:53;;;;;;;35.10;12.50;;;3.70;99.90;;;;;;4986649;28;20939;-79
2022/01/15 07:07:19;;;;;;;34.97;12.70;;;3.70;99.90;;;;;;4987389;28;20193;-77
2022/01/15 07:09:44;;;;;;;34.87;12.70;;;3.70;99.90;;;;;;4969697;28;20187;-77
2022/01/15 07:12:10;;;;;;;34.87;12.70;;;3.70;99.90;;;;;;4968194;28;20195;-76
2022/01/15 07:14:36;;;;;;;38.83;13.47;;;3.70;99.90;;;;;;4986792;28;20224;-76
2022/01/15 07:17:02;;;;;;;39.33;13.43;;;3.70;99.90;;;;;;4986482;28;20194;-76
2022/01/15 07:19:28;;;;;;;33.07;12.87;;;3.70;99.90;;;;;;4986033;28;20181;-77
2022/01/15 07:21:54;;;;;;;36.13;12.53;;;3.70;99.90;;;;;;4985353;28;20192;-77
2022/01/15 07:24:19;;;;;;;32.13;13.07;;;3.70;99.90;;;;;;4984967;28;20204;-76
2022/01/15 07:26:45;;;;;;;37.73;14.47;;;3.70;99.90;;;;;;4986575;28;20607;-76
2022/01/15 07:29:15;;;;;;;39.70;14.40;;;3.70;99.90;;;;;;4969942;28;20219;-76
2022/01/15 07:31:42;;;;;;;34.87;13.00;;;3.70;99.90;;;;;;4987754;28;20200;-77
2022/01/15 07:34:08;;;;;;;37.33;13.47;;;3.70;99.90;;;;;;4988979;28;20654;-77
2022/01/15 07:36:34;;;;;;;38.10;15.07;;;3.70;99.90;;;;;;4984934;28;20194;-77
2022/01/15 07:39:00;;;;;;;39.73;15.20;;;3.70;99.90;;;;;;4987516;28;20184;-77
2022/01/15 07:41:26;;;;;;;46.77;17.50;;;3.80;99.90;;;;;;4988301;28;20192;-77
2022/01/15 07:43:51;;;;;;;37.17;16.73;;;4.00;99.90;;;;;;4987937;28;20207;-77
2022/01/15 07:46:18;;;;;;;42.13;14.63;;;4.00;99.90;;;;;;4970732;28;20227;-78
2022/01/15 07:48:43;;;;;;;38.17;14.63;;;4.00;99.90;;;;;;4987753;28;20211;-76
2022/01/15 07:51:09;;;;;;;33.73;14.73;;;4.00;99.90;;;;;;4986818;28;20246;-75
2022/01/15 07:53:35;;;;;;;41.03;13.73;;;4.00;99.90;;;;;;4983951;28;20261;-80
2022/01/15 07:56:00;;;;;;;39.57;14.87;;;4.00;99.90;;;;;;4984156;28;20227;-76
2022/01/15 07:58:26;;;;;;;35.13;14.67;;;4.00;99.90;;;;;;4971464;28;20231;-76
2022/01/15 08:00:51;;;;;;;36.47;14.77;;;4.00;99.90;;;;;;4989872;28;20263;-76
2022/01/15 08:03:17;;;;;;;39.13;14.60;;;4.10;99.90;;;;;;4989567;28;20176;-78
2022/01/15 08:05:43;;;;;;;40.57;14.37;;;4.10;99.90;;;;;;4969846;28;21303;-79
2022/01/15 08:08:09;;;;;;;41.57;14.87;;;4.20;99.90;;;;;;4990144;28;20183;-79
2022/01/15 08:10:35;;;;;;;40.47;16.07;;;4.20;99.90;;;;;;4989415;28;20199;-76
2022/01/15 08:13:01;;;;;;;37.90;14.77;;;4.20;99.90;;;;;;4987602;28;20769;-79
2022/01/15 08:15:28;;;;;;;48.30;16.77;;;4.20;99.90;;;;;;4989652;28;20765;-79
2022/01/15 08:17:53;;;;;;;49.93;21.27;;;4.30;99.90;;;;;;4972174;28;20639;-78
2022/01/15 08:20:19;;;;;;;58.50;23.97;;;4.30;99.90;;;;;;4988915;28;20194;-77
2022/01/15 08:22:45;;;;;;;42.27;20.07;;;4.30;99.90;;;;;;4989485;28;20190;-74
2022/01/15 08:25:13;;;;;;;56.83;19.47;;;4.30;99.90;;;;;;4989054;28;20233;-76
2022/01/15 08:27:39;;;;;;;43.83;16.63;;;4.40;99.90;;;;;;4987550;28;20610;-79
2022/01/15 08:30:06;;;;;;;46.03;17.63;;;4.30;99.90;;;;;;4988369;28;20192;-76
2022/01/15 08:32:32;;;;;;;61.07;21.37;;;4.30;99.90;;;;;;4972013;28;20211;-79
2022/01/15 08:34:58;;;;;;;46.13;19.40;;;4.40;99.90;;;;;;4988225;28;20681;-76
2022/01/15 08:37:23;;;;;;;52.93;19.43;;;4.40;99.90;;;;;;4971290;28;20923;-77
2022/01/15 08:39:49;;;;;;;52.33;19.83;;;4.50;99.90;;;;;;4989805;28;20208;-77
2022/01/15 08:42:14;;;;;;;55.27;19.10;;;4.50;99.90;;;;;;4975332;28;20185;-79
2022/01/15 08:44:43;;;;;;;42.80;16.97;;;4.60;99.90;;;;;;4993279;28;20253;-78
2022/01/15 08:47:09;;;;;;;52.40;18.13;;;4.60;99.90;;;;;;4991529;28;20188;-74
2022/01/15 08:49:36;;;;;;;48.80;16.37;;;4.60;99.90;;;;;;4973277;28;20203;-77
2022/01/15 08:52:01;;;;;;;51.67;17.10;;;4.70;99.90;;;;;;4993153;28;20200;-78
2022/01/15 08:54:27;;;;;;;65.33;18.13;;;4.70;99.90;;;;;;4994178;28;21229;-76
2022/01/15 08:56:53;;;;;;;51.53;16.30;;;4.70;99.90;;;;;;4993530;28;20291;-80
2022/01/15 08:59:18;;;;;;;54.87;16.77;;;4.70;99.90;;;;;;4993333;28;20180;-78
2022/01/15 09:01:44;;;;;;;65.07;17.07;;;4.70;99.90;;;;;;4975018;28;20184;-77
2022/01/15 09:04:10;;;;;;;52.90;16.67;;;4.70;99.90;;;;;;4972513;28;20588;-76
2022/01/15 09:06:39;;;;;;;41.47;16.13;;;4.70;99.90;;;;;;4984354;28;20211;-76
2022/01/15 09:09:06;;;;;;;52.73;16.00;;;4.70;99.90;;;;;;4983900;28;20275;-77
2022/01/15 09:11:32;;;;;;;49.77;16.13;;;4.80;99.90;;;;;;4982131;28;20207;-78
2022/01/15 09:13:57;;;;;;;51.27;17.03;;;4.80;99.90;;;;;;4968914;28;20220;-78
2022/01/15 09:16:23;;;;;;;44.17;15.40;;;4.80;99.90;;;;;;4968320;28;20212;-78
2022/01/15 09:18:49;;;;;;;44.33;17.70;;;4.80;99.90;;;;;;4969599;28;20199;-77
2022/01/15 09:21:16;;;;;;;48.93;17.73;;;4.80;99.90;;;;;;4987701;28;20689;-80
2022/01/15 09:23:42;;;;;;;40.93;14.03;;;4.90;99.90;;;;;;4968679;28;20187;-79
2022/01/15 09:26:18;;;;;;;45.13;15.80;;;4.90;99.90;;;;;;4969107;28;20223;-78
2022/01/15 09:31:29;;;;;;;46.70;15.63;;;4.90;99.90;;;;;;4987159;28;20227;-76
2022/01/15 09:33:54;;;;;;;38.77;15.17;;;4.90;99.90;;;;;;4984384;28;20209;-77
2022/01/15 09:36:20;;;;;;;62.90;30.17;;;5.00;99.90;;;;;;4983818;28;20322;-76
2022/01/15 09:38:47;;;;;;;43.77;17.37;;;4.90;99.90;;;;;;4984340;28;20866;-76
2022/01/15 09:41:15;;;;;;;45.50;16.47;;;5.00;99.90;;;;;;4968562;28;20204;-76
2022/01/15 09:43:42;;;;;;;44.20;16.33;;;5.00;99.90;;;;;;4987444;28;20243;-76
2022/01/15 09:46:09;;;;;;;45.97;15.30;;;4.90;99.90;;;;;;4966940;28;20329;-77
2022/01/15 09:48:38;;;;;;;44.47;16.57;;;5.00;99.90;;;;;;4983090;28;20231;-77
2022/01/15 09:51:05;;;;;;;50.47;18.23;;;5.00;99.90;;;;;;4983781;28;20662;-77
2022/01/15 09:53:34;;;;;;;47.80;17.23;;;5.10;99.90;;;;;;4985293;28;20188;-78
2022/01/15 09:56:00;;;;;;;44.23;15.73;;;5.20;99.90;;;;;;4983896;28;20224;-77
2022/01/15 09:58:26;;;;;;;41.07;15.47;;;5.20;99.90;;;;;;4993522;22;20251;-74
2022/01/15 10:00:52;;;;;;;39.77;15.00;;;5.30;99.90;;;;;;4971278;28;20677;-73
2022/01/15 10:03:18;;;;;;;37.10;14.20;;;5.30;99.90;;;;;;4955258;28;20212;-74
2022/01/15 10:05:48;;;;;;;37.23;14.77;;;5.30;99.90;;;;;;4971135;28;21007;-72
2022/01/15 10:08:19;;;;;;;38.93;14.53;;;5.30;99.90;;;;;;4948511;28;20224;-72
2022/01/15 10:10:50;;;;;;;41.53;15.73;;;5.40;99.90;;;;;;4971512;28;20188;-72
2022/01/15 10:13:24;;;;;;;37.37;12.97;;;5.40;99.90;;;;;;4971708;28;20270;-72
2022/01/15 10:16:11;;;;;;;37.13;13.77;;;5.50;99.90;;;;;;4968613;28;20850;-73
2022/01/15 10:18:44;;;;;;;38.00;14.30;;;5.60;99.90;;;;;;4973033;28;20189;-71
2022/01/15 10:21:23;;;;;;;30.53;14.10;;;5.70;99.90;;;;;;4971621;28;20656;-73
2022/01/15 10:23:55;;;;;;;32.57;14.63;;;5.60;99.90;;;;;;4957813;28;20196;-73
2022/01/15 10:26:26;;;;;;;34.87;14.30;;;5.60;99.90;;;;;;4975213;28;20251;-73
2022/01/15 10:29:01;;;;;;;29.50;13.33;;;5.70;99.90;;;;;;4976700;28;20675;-74
2022/01/15 10:31:33;;;;;;;31.03;12.47;;;5.70;99.90;;;;;;4969249;28;20283;-73
2022/01/15 10:34:20;;;;;;;32.73;12.80;;;5.70;99.90;;;;;;4965743;28;20204;-73
2022/01/15 10:36:46;;;;;;;29.40;13.10;;;5.70;99.90;;;;;;4963801;28;20679;-73
2022/01/15 10:39:18;;;;;;;35.93;13.53;;;5.70;99.90;;;;;;4972988;28;20188;-73
2022/01/15 10:41:44;;;;;;;29.30;12.33;;;5.60;99.90;;;;;;4978152;28;20193;-74
2022/01/15 10:44:33;;;;;;;34.60;13.23;;;5.60;99.90;;;;;;4958475;28;20208;-74
2022/01/15 10:47:06;;;;;;;25.67;11.97;;;5.60;99.90;;;;;;4979324;28;20204;-74
2022/01/15 10:49:32;;;;;;;26.87;12.30;;;5.70;99.90;;;;;;4968708;28;20176;-73
2022/01/15 10:52:18;;;;;;;29.47;12.00;;;5.80;99.90;;;;;;4966729;28;20681;-73
2022/01/15 10:54:58;;;;;;;27.73;11.87;;;5.70;99.90;;;;;;4969516;28;20855;-73
2022/01/15 10:57:39;;;;;;;27.23;12.10;;;5.70;99.90;;;;;;4974677;28;20181;-74
2022/01/15 11:00:37;;;;;;;22.57;10.93;;;5.60;99.90;;;;;;4981800;28;20302;-74
2022/01/15 11:03:14;;;;;;;26.07;11.17;;;5.60;99.90;;;;;;4957255;28;20578;-75
2022/01/15 11:05:47;;;;;;;30.73;11.30;;;5.70;99.90;;;;;;4974289;28;20223;-74
2022/01/15 11:08:20;;;;;;;24.37;10.67;;;5.80;99.90;;;;;;4976913;28;20199;-74
2022/01/15 11:10:55;;;;;;;26.47;11.43;;;5.80;99.90;;;;;;4958089;28;20587;-72
2022/01/15 11:13:24;;;;;;;22.77;11.00;;;5.90;99.90;;;;;;4964956;28;20265;-73
2022/01/15 11:15:54;;;;;;;22.50;10.70;;;6.00;99.90;;;;;;4970660;28;20216;-80
2022/01/15 11:18:28;;;;;;;19.33;9.83;;;6.00;99.90;;;;;;4973476;28;20184;-73
2022/01/15 11:21:00;;;;;;;22.67;10.07;;;6.10;99.90;;;;;;4972680;28;20256;-74
2022/01/15 11:23:28;;;;;;;22.07;9.67;;;6.10;99.90;;;;;;4967742;28;20201;-74
2022/01/15 11:26:00;;;;;;;22.33;10.23;;;6.10;99.90;;;;;;4954125;28;20195;-74
2022/01/15 11:28:30;;;;;;;17.27;9.00;;;6.10;99.90;;;;;;4973627;28;20203;-74
2022/01/15 11:31:03;;;;;;;15.97;8.67;;;6.10;99.90;;;;;;4971354;28;20255;-76
2022/01/15 11:33:32;;;;;;;16.17;8.17;;;6.10;99.90;;;;;;4970944;28;20579;-74
2022/01/15 11:35:58;;;;;;;19.40;7.90;;;6.10;99.90;;;;;;4973275;28;20205;-73
2022/01/15 11:38:45;;;;;;;21.27;9.53;;;6.20;99.90;;;;;;4977372;28;20278;-73
2022/01/15 11:41:35;;;;;;;19.63;9.10;;;6.20;99.90;;;;;;4972073;28;20444;-74
2022/01/15 11:44:02;;;;;;;17.63;8.43;;;6.30;99.90;;;;;;4971656;28;20632;-74
2022/01/15 11:46:46;;;;;;;17.43;8.93;;;6.30;99.90;;;;;;4979727;28;20651;-73
2022/01/15 11:49:31;;;;;;;18.73;8.63;;;6.20;99.90;;;;;;4975670;28;20189;-73
2022/01/15 11:52:11;;;;;;;14.50;7.77;;;6.10;99.90;;;;;;4973779;28;20196;-71
2022/01/15 11:54:48;;;;;;;26.03;11.93;;;6.10;99.90;;;;;;4977857;28;20216;-72
2022/01/15 11:57:26;;;;;;;22.40;10.50;;;5.90;99.90;;;;;;4977951;28;20188;-72
2022/01/15 11:59:54;;;;;;;22.70;9.83;;;5.80;99.90;;;;;;4977024;28;20231;-76
2022/01/15 12:02:38;;;;;;;19.30;8.97;;;5.90;99.90;;;;;;4977156;28;20268;-75
2022/01/15 12:05:15;;;;;;;15.67;7.83;;;6.00;99.90;;;;;;4976338;28;20221;-72
2022/01/15 12:07:43;;;;;;;12.67;6.60;;;6.00;99.90;;;;;;4976898;28;20187;-73
2022/01/15 12:10:18;;;;;;;15.50;6.90;;;5.90;99.90;;;;;;4978787;28;20212;-73
2022/01/15 12:12:52;;;;;;;13.70;6.53;;;5.90;99.90;;;;;;4976618;28;20719;-72
2022/01/15 12:15:26;;;;;;;13.50;6.97;;;5.90;99.90;;;;;;4976056;28;20203;-71
2022/01/15 12:17:54;;;;;;;11.87;6.43;;;6.00;99.90;;;;;;4977594;28;20272;-72
2022/01/15 12:20:25;;;;;;;11.70;5.60;;;6.00;99.90;;;;;;4976621;28;20544;-73
2022/01/15 12:23:00;;;;;;;12.23;6.70;;;6.00;99.90;;;;;;4978140;28;20184;-74
2022/01/15 12:25:26;;;;;;;12.77;7.03;;;6.00;99.90;;;;;;4972829;28;20207;-74
2022/01/15 12:28:00;;;;;;;11.50;6.57;;;6.00;99.90;;;;;;4973754;28;20192;-74
2022/01/15 12:30:47;;;;;;;13.70;7.00;;;5.90;99.90;;;;;;4976433;28;20192;-72
2022/01/15 12:33:15;;;;;;;13.80;6.73;;;5.90;99.90;;;;;;4974187;28;20204;-73
2022/01/15 12:35:43;;;;;;;11.30;6.27;;;5.90;99.90;;;;;;4973222;28;20208;-74
2022/01/15 12:38:13;;;;;;;9.20;5.30;;;5.90;99.90;;;;;;4972958;28;20558;-75
2022/01/15 12:40:45;;;;;;;11.77;5.63;;;6.00;99.90;;;;;;4974251;28;20223;-74
2022/01/15 12:43:49;;;;;;;8.70;4.87;;;6.00;99.90;;;;;;4969579;28;20216;-75
2022/01/15 12:46:17;;;;;;;6.70;3.77;;;6.00;99.90;;;;;;4907772;29;20205;-74
2022/01/15 12:48:44;;;;;;;10.47;6.50;;;6.00;99.90;;;;;;4909860;29;20187;-73
2022/01/15 12:51:18;;;;;;;23.23;13.53;;;6.00;99.90;;;;;;4937157;28;20223;-75
2022/01/15 12:53:46;;;;;;;10.57;6.10;;;6.00;99.90;;;;;;4968505;28;20204;-74
2022/01/15 12:56:14;;;;;;;11.80;5.87;;;5.90;99.90;;;;;;4978504;28;20546;-74
2022/01/15 12:58:41;;;;;;;11.93;6.70;;;5.90;99.90;;;;;;4976950;28;20187;-73
2022/01/15 13:01:10;;;;;;;15.77;7.03;;;5.90;99.90;;;;;;4974919;28;20188;-74
2022/01/15 13:03:38;;;;;;;10.30;5.97;;;5.70;99.90;;;;;;4967495;28;21058;-73